Airfield :
LOGIN :

Register | Disclaimer

   EN    FR    IT 

 










Legend :    VFR   Marginal VFR   IFR   Intensive IFR   Very Intensive IFR
Visi :
Ceiling :
>= 8 km
>= 3000ft
5 to 8 km
1000 to 3000 ft
1500m to 5 km
500 to 1000 ft
800 to 1500m
200 to 500 ft
< 800m
< 200 ft
Symbols :   Thunderstorms  Fog  Heavy snow  Heavy precipitations  Wind > 20 kt
SIGMETs :     Misc.  Thunderstorms  Icing  Turbulence  Mountain Waves  Volcanic Ashes







- Airport Elevation : 876 ft
- IATA code : MBX


LJMB - Maribor

CURRENT METAR :
  • 190800Z 35007KT 320V020 9999 FEW045 25/11 Q1022

EXPIRED METARs :
  • 190730Z 01010KT 340V040 9999 FEW040 24/12 Q1022
  • 190700Z 36009KT 330V030 9999 FEW040 24/12 Q1022
  • 190630Z 34009KT CAVOK 23/11 Q1021
  • 190600Z 01006KT 340V050 CAVOK 22/11 Q1021
  • 190530Z 02004KT CAVOK 21/12 Q1021

TAF TAF LJMB
Valid from the 19 at 06:00 until the 20 at 06:00 UTC


190500Z 1906/2006 36005KT CAVOK
TEMPO 1906/1909 36010KT
BECMG 1908/1910 FEW050
BECMG 1910/1912 05008KT
BECMG 1919/1921 36005KT CAVOK
No reported NOTAMs for that airfield.



MET'MAP, your aeronautical weather chart ! - Copyright ORBIFLY December 2007 - Disclaimer

ORBIFLY MET'MAP TEAM :

Programming & Development : Alexandra Zaïnal
Concept & Development : Baudouin d'Aumeries
Co-Development & Prog : Marc-Olivier Méhu
Technical & hardware support : Manuel Goepfert

Contact : metmap@orbifly.com




SOURCES & CREDITS :

   NOAA